sensor_id;sensor_type;location;lat;lon;timestamp;P1;durP1;ratioP1;P2;durP2;ratioP2
69956;SDS011;57283;54.816;9.482;2022-10-16T00:01:08;8.63;;;3.97;;
69956;SDS011;57283;54.816;9.482;2022-10-16T00:03:37;8.20;;;3.13;;
69956;SDS011;57283;54.816;9.482;2022-10-16T00:06:04;10.27;;;3.45;;
69956;SDS011;57283;54.816;9.482;2022-10-16T00:08:34;11.48;;;3.15;;
69956;SDS011;57283;54.816;9.482;2022-10-16T00:11:02;7.38;;;2.78;;
69956;SDS011;57283;54.816;9.482;2022-10-16T00:13:30;9.37;;;3.10;;
69956;SDS011;57283;54.816;9.482;2022-10-16T00:15:59;10.02;;;3.30;;
69956;SDS011;57283;54.816;9.482;2022-10-16T00:18:26;9.15;;;3.10;;
69956;SDS011;57283;54.816;9.482;2022-10-16T00:20:54;10.68;;;3.03;;
69956;SDS011;57283;54.816;9.482;2022-10-16T00:23:22;9.32;;;3.40;;
69956;SDS011;57283;54.816;9.482;2022-10-16T00:26:01;8.10;;;3.10;;
69956;SDS011;57283;54.816;9.482;2022-10-16T00:28:28;8.65;;;3.33;;
69956;SDS011;57283;54.816;9.482;2022-10-16T00:30:56;12.18;;;3.60;;
69956;SDS011;57283;54.816;9.482;2022-10-16T00:33:24;8.32;;;3.42;;
69956;SDS011;57283;54.816;9.482;2022-10-16T00:35:51;8.80;;;2.95;;
69956;SDS011;57283;54.816;9.482;2022-10-16T00:38:19;7.23;;;3.03;;
69956;SDS011;57283;54.816;9.482;2022-10-16T00:40:46;8.15;;;2.80;;
69956;SDS011;57283;54.816;9.482;2022-10-16T00:45:58;9.50;;;2.88;;
69956;SDS011;57283;54.816;9.482;2022-10-16T00:48:25;7.00;;;2.75;;
69956;SDS011;57283;54.816;9.482;2022-10-16T00:50:53;7.07;;;2.80;;
69956;SDS011;57283;54.816;9.482;2022-10-16T00:53:21;8.55;;;2.53;;
69956;SDS011;57283;54.816;9.482;2022-10-16T00:55:48;9.10;;;2.60;;
69956;SDS011;57283;54.816;9.482;2022-10-16T00:58:16;6.85;;;2.20;;
69956;SDS011;57283;54.816;9.482;2022-10-16T01:00:43;7.78;;;2.17;;
69956;SDS011;57283;54.816;9.482;2022-10-16T01:03:27;7.53;;;2.50;;
69956;SDS011;57283;54.816;9.482;2022-10-16T01:05:58;8.57;;;1.90;;
69956;SDS011;57283;54.816;9.482;2022-10-16T01:08:31;6.03;;;2.25;;
69956;SDS011;57283;54.816;9.482;2022-10-16T01:11:00;7.28;;;2.17;;
69956;SDS011;57283;54.816;9.482;2022-10-16T01:13:30;8.98;;;2.42;;
69956;SDS011;57283;54.816;9.482;2022-10-16T01:16:01;7.43;;;2.20;;
69956;SDS011;57283;54.816;9.482;2022-10-16T01:18:35;6.75;;;1.88;;
69956;SDS011;57283;54.816;9.482;2022-10-16T01:21:05;6.45;;;2.30;;
69956;SDS011;57283;54.816;9.482;2022-10-16T01:23:36;7.45;;;2.17;;
69956;SDS011;57283;54.816;9.482;2022-10-16T01:26:20;6.15;;;2.22;;
69956;SDS011;57283;54.816;9.482;2022-10-16T01:28:54;6.80;;;1.90;;
69956;SDS011;57283;54.816;9.482;2022-10-16T01:31:25;4.53;;;1.63;;
69956;SDS011;57283;54.816;9.482;2022-10-16T01:33:56;8.82;;;1.88;;
69956;SDS011;57283;54.816;9.482;2022-10-16T01:36:26;4.82;;;1.75;;
69956;SDS011;57283;54.816;9.482;2022-10-16T01:38:56;7.28;;;1.98;;
69956;SDS011;57283;54.816;9.482;2022-10-16T01:41:28;7.90;;;2.00;;
69956;SDS011;57283;54.816;9.482;2022-10-16T01:44:00;6.35;;;2.40;;
69956;SDS011;57283;54.816;9.482;2022-10-16T01:46:29;7.47;;;2.13;;
69956;SDS011;57283;54.816;9.482;2022-10-16T01:48:57;6.45;;;2.65;;
69956;SDS011;57283;54.816;9.482;2022-10-16T01:51:26;8.48;;;2.00;;
69956;SDS011;57283;54.816;9.482;2022-10-16T01:53:55;5.90;;;2.00;;
69956;SDS011;57283;54.816;9.482;2022-10-16T01:56:24;5.68;;;1.90;;
69956;SDS011;57283;54.816;9.482;2022-10-16T01:58:53;7.53;;;2.50;;
69956;SDS011;57283;54.816;9.482;2022-10-16T02:01:23;7.75;;;2.10;;
69956;SDS011;57283;54.816;9.482;2022-10-16T02:03:53;5.25;;;1.95;;
69956;SDS011;57283;54.816;9.482;2022-10-16T02:06:21;10.33;;;2.20;;
69956;SDS011;57283;54.816;9.482;2022-10-16T02:08:49;7.78;;;2.20;;
69956;SDS011;57283;54.816;9.482;2022-10-16T02:11:17;7.90;;;2.08;;
69956;SDS011;57283;54.816;9.482;2022-10-16T02:13:45;9.98;;;2.55;;
69956;SDS011;57283;54.816;9.482;2022-10-16T02:16:13;7.30;;;2.10;;
69956;SDS011;57283;54.816;9.482;2022-10-16T02:18:42;7.77;;;1.90;;
69956;SDS011;57283;54.816;9.482;2022-10-16T02:21:12;7.03;;;2.10;;
69956;SDS011;57283;54.816;9.482;2022-10-16T02:23:42;8.13;;;2.33;;
69956;SDS011;57283;54.816;9.482;2022-10-16T02:26:13;7.72;;;2.28;;
69956;SDS011;57283;54.816;9.482;2022-10-16T02:28:44;7.38;;;2.33;;
69956;SDS011;57283;54.816;9.482;2022-10-16T02:31:12;5.17;;;1.80;;
69956;SDS011;57283;54.816;9.482;2022-10-16T02:33:44;8.73;;;2.00;;
69956;SDS011;57283;54.816;9.482;2022-10-16T02:36:12;6.05;;;1.65;;
69956;SDS011;57283;54.816;9.482;2022-10-16T02:38:40;7.75;;;1.70;;
69956;SDS011;57283;54.816;9.482;2022-10-16T02:41:07;5.43;;;1.95;;
69956;SDS011;57283;54.816;9.482;2022-10-16T02:43:35;5.07;;;1.83;;
69956;SDS011;57283;54.816;9.482;2022-10-16T02:46:03;5.82;;;1.85;;
69956;SDS011;57283;54.816;9.482;2022-10-16T02:48:30;5.55;;;1.75;;
69956;SDS011;57283;54.816;9.482;2022-10-16T02:50:59;5.28;;;1.63;;
69956;SDS011;57283;54.816;9.482;2022-10-16T02:53:27;6.03;;;1.63;;
69956;SDS011;57283;54.816;9.482;2022-10-16T02:55:54;7.20;;;2.00;;
69956;SDS011;57283;54.816;9.482;2022-10-16T02:58:22;5.70;;;1.77;;
69956;SDS011;57283;54.816;9.482;2022-10-16T03:00:49;6.30;;;1.75;;
69956;SDS011;57283;54.816;9.482;2022-10-16T03:03:17;4.72;;;1.60;;
69956;SDS011;57283;54.816;9.482;2022-10-16T03:05:44;6.78;;;2.00;;
69956;SDS011;57283;54.816;9.482;2022-10-16T03:08:14;5.27;;;1.90;;
69956;SDS011;57283;54.816;9.482;2022-10-16T03:10:41;6.63;;;2.00;;
69956;SDS011;57283;54.816;9.482;2022-10-16T03:13:09;9.60;;;2.35;;
69956;SDS011;57283;54.816;9.482;2022-10-16T03:15:36;8.85;;;1.88;;
69956;SDS011;57283;54.816;9.482;2022-10-16T03:18:04;7.72;;;1.80;;
69956;SDS011;57283;54.816;9.482;2022-10-16T03:20:31;7.10;;;1.60;;
69956;SDS011;57283;54.816;9.482;2022-10-16T03:22:59;7.95;;;1.77;;
69956;SDS011;57283;54.816;9.482;2022-10-16T03:25:28;7.40;;;1.75;;
69956;SDS011;57283;54.816;9.482;2022-10-16T03:27:55;6.20;;;1.75;;
69956;SDS011;57283;54.816;9.482;2022-10-16T03:30:23;5.60;;;1.45;;
69956;SDS011;57283;54.816;9.482;2022-10-16T03:32:50;6.43;;;1.60;;
69956;SDS011;57283;54.816;9.482;2022-10-16T03:35:20;7.70;;;2.03;;
69956;SDS011;57283;54.816;9.482;2022-10-16T03:37:47;6.75;;;1.77;;
69956;SDS011;57283;54.816;9.482;2022-10-16T03:40:15;8.15;;;2.30;;
69956;SDS011;57283;54.816;9.482;2022-10-16T03:42:44;10.27;;;2.22;;
69956;SDS011;57283;54.816;9.482;2022-10-16T03:45:12;8.10;;;1.70;;
69956;SDS011;57283;54.816;9.482;2022-10-16T03:47:39;9.45;;;1.98;;
69956;SDS011;57283;54.816;9.482;2022-10-16T03:50:07;7.80;;;3.10;;
69956;SDS011;57283;54.816;9.482;2022-10-16T03:52:34;7.60;;;2.10;;
69956;SDS011;57283;54.816;9.482;2022-10-16T03:55:02;5.88;;;1.80;;
69956;SDS011;57283;54.816;9.482;2022-10-16T03:57:29;7.57;;;2.17;;
69956;SDS011;57283;54.816;9.482;2022-10-16T03:59:58;7.60;;;2.25;;
69956;SDS011;57283;54.816;9.482;2022-10-16T04:02:26;7.80;;;1.98;;
69956;SDS011;57283;54.816;9.482;2022-10-16T04:04:53;5.75;;;1.70;;
69956;SDS011;57283;54.816;9.482;2022-10-16T04:07:21;10.82;;;1.88;;
69956;SDS011;57283;54.816;9.482;2022-10-16T04:09:49;7.03;;;1.70;;
69956;SDS011;57283;54.816;9.482;2022-10-16T04:12:18;7.63;;;1.90;;
69956;SDS011;57283;54.816;9.482;2022-10-16T04:14:45;5.22;;;1.83;;
69956;SDS011;57283;54.816;9.482;2022-10-16T04:17:15;7.78;;;1.73;;
69956;SDS011;57283;54.816;9.482;2022-10-16T04:19:43;6.80;;;1.90;;
69956;SDS011;57283;54.816;9.482;2022-10-16T04:22:10;9.57;;;2.10;;
69956;SDS011;57283;54.816;9.482;2022-10-16T04:24:38;6.68;;;2.22;;
69956;SDS011;57283;54.816;9.482;2022-10-16T04:27:05;5.68;;;1.80;;
69956;SDS011;57283;54.816;9.482;2022-10-16T04:29:33;6.03;;;1.77;;
69956;SDS011;57283;54.816;9.482;2022-10-16T04:32:00;6.22;;;2.00;;
69956;SDS011;57283;54.816;9.482;2022-10-16T04:34:29;8.23;;;2.23;;
69956;SDS011;57283;54.816;9.482;2022-10-16T04:36:57;8.07;;;2.20;;
69956;SDS011;57283;54.816;9.482;2022-10-16T04:39:24;6.68;;;2.00;;
69956;SDS011;57283;54.816;9.482;2022-10-16T04:41:52;8.43;;;1.85;;
69956;SDS011;57283;54.816;9.482;2022-10-16T04:44:19;9.68;;;2.05;;
69956;SDS011;57283;54.816;9.482;2022-10-16T04:46:47;13.13;;;2.33;;
69956;SDS011;57283;54.816;9.482;2022-10-16T04:49:15;7.82;;;1.80;;
69956;SDS011;57283;54.816;9.482;2022-10-16T04:51:44;7.75;;;2.10;;
69956;SDS011;57283;54.816;9.482;2022-10-16T04:54:11;10.02;;;1.60;;
69956;SDS011;57283;54.816;9.482;2022-10-16T04:56:39;8.35;;;1.85;;
69956;SDS011;57283;54.816;9.482;2022-10-16T04:59:12;11.20;;;2.03;;
69956;SDS011;57283;54.816;9.482;2022-10-16T05:01:40;7.75;;;1.80;;
69956;SDS011;57283;54.816;9.482;2022-10-16T05:04:08;8.80;;;2.17;;
69956;SDS011;57283;54.816;9.482;2022-10-16T05:06:35;9.43;;;2.42;;
69956;SDS011;57283;54.816;9.482;2022-10-16T05:09:06;9.93;;;2.50;;
69956;SDS011;57283;54.816;9.482;2022-10-16T05:11:33;6.50;;;1.90;;
69956;SDS011;57283;54.816;9.482;2022-10-16T05:14:01;9.05;;;2.03;;
69956;SDS011;57283;54.816;9.482;2022-10-16T05:16:29;7.18;;;1.70;;
69956;SDS011;57283;54.816;9.482;2022-10-16T05:18:57;7.47;;;1.88;;
69956;SDS011;57283;54.816;9.482;2022-10-16T05:21:44;7.50;;;1.95;;
69956;SDS011;57283;54.816;9.482;2022-10-16T05:24:13;5.30;;;1.90;;
69956;SDS011;57283;54.816;9.482;2022-10-16T05:26:41;5.47;;;1.55;;
69956;SDS011;57283;54.816;9.482;2022-10-16T05:29:08;7.75;;;2.00;;
69956;SDS011;57283;54.816;9.482;2022-10-16T05:31:36;6.60;;;2.00;;
69956;SDS011;57283;54.816;9.482;2022-10-16T05:34:03;7.85;;;1.77;;
69956;SDS011;57283;54.816;9.482;2022-10-16T05:36:31;5.40;;;1.60;;
69956;SDS011;57283;54.816;9.482;2022-10-16T05:38:58;6.80;;;1.60;;
69956;SDS011;57283;54.816;9.482;2022-10-16T05:41:27;7.13;;;1.77;;
69956;SDS011;57283;54.816;9.482;2022-10-16T05:43:55;6.75;;;1.90;;
69956;SDS011;57283;54.816;9.482;2022-10-16T05:46:22;6.82;;;2.13;;
69956;SDS011;57283;54.816;9.482;2022-10-16T05:48:51;9.83;;;2.03;;
69956;SDS011;57283;54.816;9.482;2022-10-16T05:51:18;13.32;;;2.40;;
69956;SDS011;57283;54.816;9.482;2022-10-16T05:53:46;7.30;;;2.38;;
69956;SDS011;57283;54.816;9.482;2022-10-16T05:56:13;7.80;;;2.20;;
69956;SDS011;57283;54.816;9.482;2022-10-16T05:58:42;8.00;;;2.10;;
69956;SDS011;57283;54.816;9.482;2022-10-16T06:01:11;5.83;;;2.00;;
69956;SDS011;57283;54.816;9.482;2022-10-16T06:03:39;5.07;;;2.03;;
69956;SDS011;57283;54.816;9.482;2022-10-16T06:06:07;5.85;;;1.92;;
69956;SDS011;57283;54.816;9.482;2022-10-16T06:08:38;7.03;;;2.10;;
69956;SDS011;57283;54.816;9.482;2022-10-16T06:11:06;8.20;;;2.00;;
69956;SDS011;57283;54.816;9.482;2022-10-16T06:13:34;6.23;;;1.77;;
69956;SDS011;57283;54.816;9.482;2022-10-16T06:16:03;8.45;;;2.10;;
69956;SDS011;57283;54.816;9.482;2022-10-16T06:18:30;6.65;;;1.83;;
69956;SDS011;57283;54.816;9.482;2022-10-16T06:20:58;12.88;;;2.50;;
69956;SDS011;57283;54.816;9.482;2022-10-16T06:23:25;14.35;;;2.28;;
69956;SDS011;57283;54.816;9.482;2022-10-16T06:26:03;11.93;;;1.90;;
69956;SDS011;57283;54.816;9.482;2022-10-16T06:28:31;8.57;;;2.00;;
69956;SDS011;57283;54.816;9.482;2022-10-16T06:30:59;8.23;;;2.05;;
69956;SDS011;57283;54.816;9.482;2022-10-16T06:33:33;6.82;;;1.70;;
69956;SDS011;57283;54.816;9.482;2022-10-16T06:36:01;9.93;;;2.20;;
69956;SDS011;57283;54.816;9.482;2022-10-16T06:38:29;7.33;;;1.60;;
69956;SDS011;57283;54.816;9.482;2022-10-16T06:40:57;5.68;;;1.52;;
69956;SDS011;57283;54.816;9.482;2022-10-16T06:43:25;7.65;;;2.00;;
69956;SDS011;57283;54.816;9.482;2022-10-16T06:45:53;5.97;;;1.90;;
69956;SDS011;57283;54.816;9.482;2022-10-16T06:48:21;6.93;;;1.70;;
69956;SDS011;57283;54.816;9.482;2022-10-16T06:50:57;5.93;;;1.80;;
69956;SDS011;57283;54.816;9.482;2022-10-16T06:53:25;4.25;;;1.30;;
69956;SDS011;57283;54.816;9.482;2022-10-16T06:55:53;4.07;;;1.73;;
69956;SDS011;57283;54.816;9.482;2022-10-16T06:58:21;7.30;;;1.40;;
69956;SDS011;57283;54.816;9.482;2022-10-16T07:00:48;4.75;;;1.88;;
69956;SDS011;57283;54.816;9.482;2022-10-16T07:03:16;5.20;;;1.53;;
69956;SDS011;57283;54.816;9.482;2022-10-16T07:05:44;5.65;;;1.50;;
69956;SDS011;57283;54.816;9.482;2022-10-16T07:08:13;4.22;;;1.40;;
69956;SDS011;57283;54.816;9.482;2022-10-16T07:10:41;4.88;;;1.40;;
69956;SDS011;57283;54.816;9.482;2022-10-16T07:13:08;5.00;;;1.50;;
69956;SDS011;57283;54.816;9.482;2022-10-16T07:15:39;4.77;;;1.70;;
69956;SDS011;57283;54.816;9.482;2022-10-16T07:18:07;5.70;;;1.60;;
69956;SDS011;57283;54.816;9.482;2022-10-16T07:20:34;5.78;;;1.65;;
69956;SDS011;57283;54.816;9.482;2022-10-16T07:23:03;6.45;;;1.88;;
69956;SDS011;57283;54.816;9.482;2022-10-16T07:25:32;5.18;;;1.65;;
69956;SDS011;57283;54.816;9.482;2022-10-16T07:27:59;5.57;;;1.50;;
69956;SDS011;57283;54.816;9.482;2022-10-16T07:30:28;4.28;;;1.40;;
69956;SDS011;57283;54.816;9.482;2022-10-16T07:32:56;6.40;;;1.60;;
69956;SDS011;57283;54.816;9.482;2022-10-16T07:35:23;9.90;;;2.42;;
69956;SDS011;57283;54.816;9.482;2022-10-16T07:37:51;5.32;;;1.60;;
69956;SDS011;57283;54.816;9.482;2022-10-16T07:40:18;4.03;;;1.50;;
69956;SDS011;57283;54.816;9.482;2022-10-16T07:42:47;6.75;;;1.50;;
69956;SDS011;57283;54.816;9.482;2022-10-16T07:45:15;7.95;;;1.70;;
69956;SDS011;57283;54.816;9.482;2022-10-16T07:47:42;5.40;;;1.60;;
69956;SDS011;57283;54.816;9.482;2022-10-16T07:50:10;3.97;;;1.27;;
69956;SDS011;57283;54.816;9.482;2022-10-16T07:52:37;5.30;;;1.40;;
69956;SDS011;57283;54.816;9.482;2022-10-16T07:55:05;6.65;;;1.80;;
69956;SDS011;57283;54.816;9.482;2022-10-16T07:57:33;4.95;;;1.50;;
69956;SDS011;57283;54.816;9.482;2022-10-16T08:00:02;6.57;;;1.60;;
69956;SDS011;57283;54.816;9.482;2022-10-16T08:02:30;5.60;;;1.63;;
69956;SDS011;57283;54.816;9.482;2022-10-16T08:04:58;5.70;;;1.50;;
69956;SDS011;57283;54.816;9.482;2022-10-16T08:07:26;5.22;;;1.60;;
69956;SDS011;57283;54.816;9.482;2022-10-16T08:09:54;4.38;;;1.50;;
69956;SDS011;57283;54.816;9.482;2022-10-16T08:12:22;4.00;;;1.50;;
69956;SDS011;57283;54.816;9.482;2022-10-16T08:14:50;3.72;;;1.50;;
69956;SDS011;57283;54.816;9.482;2022-10-16T08:17:19;4.57;;;1.50;;
69956;SDS011;57283;54.816;9.482;2022-10-16T08:19:47;5.88;;;1.95;;
69956;SDS011;57283;54.816;9.482;2022-10-16T08:22:14;5.43;;;1.65;;
69956;SDS011;57283;54.816;9.482;2022-10-16T08:24:42;7.15;;;1.50;;
69956;SDS011;57283;54.816;9.482;2022-10-16T08:27:09;4.57;;;1.77;;
69956;SDS011;57283;54.816;9.482;2022-10-16T08:29:37;4.83;;;1.70;;
69956;SDS011;57283;54.816;9.482;2022-10-16T08:32:04;4.22;;;1.90;;
69956;SDS011;57283;54.816;9.482;2022-10-16T08:34:33;5.03;;;2.20;;
69956;SDS011;57283;54.816;9.482;2022-10-16T08:37:01;5.55;;;2.40;;
69956;SDS011;57283;54.816;9.482;2022-10-16T08:39:28;5.63;;;2.53;;
69956;SDS011;57283;54.816;9.482;2022-10-16T08:42:00;4.47;;;1.90;;
69956;SDS011;57283;54.816;9.482;2022-10-16T08:44:34;4.50;;;2.20;;
69956;SDS011;57283;54.816;9.482;2022-10-16T08:47:06;5.03;;;2.30;;
69956;SDS011;57283;54.816;9.482;2022-10-16T08:49:35;6.20;;;2.30;;
69956;SDS011;57283;54.816;9.482;2022-10-16T08:52:03;6.05;;;2.33;;
69956;SDS011;57283;54.816;9.482;2022-10-16T08:54:32;4.97;;;2.30;;
69956;SDS011;57283;54.816;9.482;2022-10-16T08:57:07;6.50;;;2.42;;
69956;SDS011;57283;54.816;9.482;2022-10-16T08:59:36;4.22;;;2.20;;
69956;SDS011;57283;54.816;9.482;2022-10-16T09:02:08;5.07;;;1.95;;
69956;SDS011;57283;54.816;9.482;2022-10-16T09:04:53;4.03;;;1.95;;
69956;SDS011;57283;54.816;9.482;2022-10-16T09:07:25;5.13;;;2.00;;
69956;SDS011;57283;54.816;9.482;2022-10-16T09:10:00;5.90;;;1.98;;
69956;SDS011;57283;54.816;9.482;2022-10-16T09:12:31;3.92;;;2.38;;
69956;SDS011;57283;54.816;9.482;2022-10-16T09:15:02;5.40;;;2.65;;
69956;SDS011;57283;54.816;9.482;2022-10-16T09:17:32;5.32;;;2.45;;
69956;SDS011;57283;54.816;9.482;2022-10-16T09:20:08;6.80;;;2.77;;
69956;SDS011;57283;54.816;9.482;2022-10-16T09:22:38;7.18;;;1.90;;
69956;SDS011;57283;54.816;9.482;2022-10-16T09:25:10;5.53;;;2.20;;
69956;SDS011;57283;54.816;9.482;2022-10-16T09:27:38;5.65;;;2.30;;
69956;SDS011;57283;54.816;9.482;2022-10-16T09:30:10;6.15;;;2.40;;
69956;SDS011;57283;54.816;9.482;2022-10-16T09:32:38;4.53;;;2.00;;
69956;SDS011;57283;54.816;9.482;2022-10-16T09:35:09;7.18;;;2.50;;
69956;SDS011;57283;54.816;9.482;2022-10-16T09:37:38;6.13;;;2.45;;
69956;SDS011;57283;54.816;9.482;2022-10-16T09:40:06;7.10;;;2.30;;
69956;SDS011;57283;54.816;9.482;2022-10-16T09:42:35;5.38;;;1.92;;
69956;SDS011;57283;54.816;9.482;2022-10-16T09:45:02;8.63;;;2.50;;
69956;SDS011;57283;54.816;9.482;2022-10-16T09:47:31;5.85;;;2.47;;
69956;SDS011;57283;54.816;9.482;2022-10-16T09:50:00;6.13;;;1.80;;
69956;SDS011;57283;54.816;9.482;2022-10-16T09:52:31;7.05;;;2.47;;
69956;SDS011;57283;54.816;9.482;2022-10-16T09:55:00;6.15;;;2.70;;
69956;SDS011;57283;54.816;9.482;2022-10-16T09:57:28;6.93;;;2.50;;
69956;SDS011;57283;54.816;9.482;2022-10-16T09:59:56;6.82;;;2.15;;
69956;SDS011;57283;54.816;9.482;2022-10-16T10:02:27;5.88;;;2.65;;
69956;SDS011;57283;54.816;9.482;2022-10-16T10:04:55;5.93;;;2.60;;
69956;SDS011;57283;54.816;9.482;2022-10-16T10:07:24;7.45;;;3.20;;
69956;SDS011;57283;54.816;9.482;2022-10-16T10:09:54;5.47;;;2.40;;
69956;SDS011;57283;54.816;9.482;2022-10-16T10:12:23;6.85;;;2.72;;
69956;SDS011;57283;54.816;9.482;2022-10-16T10:14:53;7.45;;;2.63;;
69956;SDS011;57283;54.816;9.482;2022-10-16T10:17:21;6.43;;;2.17;;
69956;SDS011;57283;54.816;9.482;2022-10-16T10:19:50;8.15;;;2.42;;
69956;SDS011;57283;54.816;9.482;2022-10-16T10:22:19;7.30;;;1.93;;
69956;SDS011;57283;54.816;9.482;2022-10-16T10:27:39;6.43;;;2.22;;
69956;SDS011;57283;54.816;9.482;2022-10-16T10:30:14;8.48;;;2.25;;
69956;SDS011;57283;54.816;9.482;2022-10-16T10:32:45;7.00;;;2.33;;
69956;SDS011;57283;54.816;9.482;2022-10-16T10:35:18;8.37;;;2.23;;
69956;SDS011;57283;54.816;9.482;2022-10-16T10:37:53;8.38;;;2.10;;
69956;SDS011;57283;54.816;9.482;2022-10-16T10:40:29;7.35;;;2.28;;
69956;SDS011;57283;54.816;9.482;2022-10-16T10:42:59;6.45;;;1.90;;
69956;SDS011;57283;54.816;9.482;2022-10-16T10:45:36;7.88;;;2.00;;
69956;SDS011;57283;54.816;9.482;2022-10-16T10:48:11;9.57;;;2.53;;
69956;SDS011;57283;54.816;9.482;2022-10-16T10:50:41;10.00;;;2.08;;
69956;SDS011;57283;54.816;9.482;2022-10-16T10:53:13;11.90;;;1.98;;
69956;SDS011;57283;54.816;9.482;2022-10-16T10:55:45;8.90;;;2.22;;
69956;SDS011;57283;54.816;9.482;2022-10-16T11:01:04;7.67;;;1.83;;
69956;SDS011;57283;54.816;9.482;2022-10-16T11:03:37;8.63;;;2.60;;
69956;SDS011;57283;54.816;9.482;2022-10-16T11:06:08;8.55;;;1.98;;
69956;SDS011;57283;54.816;9.482;2022-10-16T11:08:38;7.00;;;2.00;;
69956;SDS011;57283;54.816;9.482;2022-10-16T11:11:08;8.25;;;2.33;;
69956;SDS011;57283;54.816;9.482;2022-10-16T11:13:38;9.43;;;1.97;;
69956;SDS011;57283;54.816;9.482;2022-10-16T11:16:10;7.32;;;1.63;;
69956;SDS011;57283;54.816;9.482;2022-10-16T11:18:47;10.80;;;2.67;;
69956;SDS011;57283;54.816;9.482;2022-10-16T11:21:17;8.02;;;1.83;;
69956;SDS011;57283;54.816;9.482;2022-10-16T11:23:47;7.72;;;1.52;;
69956;SDS011;57283;54.816;9.482;2022-10-16T11:26:18;7.63;;;1.70;;
69956;SDS011;57283;54.816;9.482;2022-10-16T11:28:47;8.70;;;2.08;;
69956;SDS011;57283;54.816;9.482;2022-10-16T11:31:19;9.20;;;1.75;;
69956;SDS011;57283;54.816;9.482;2022-10-16T11:33:51;7.22;;;1.95;;
69956;SDS011;57283;54.816;9.482;2022-10-16T11:36:23;7.25;;;1.63;;
69956;SDS011;57283;54.816;9.482;2022-10-16T11:38:54;7.37;;;2.07;;
69956;SDS011;57283;54.816;9.482;2022-10-16T11:41:24;9.23;;;1.77;;
69956;SDS011;57283;54.816;9.482;2022-10-16T11:43:56;6.75;;;1.55;;
69956;SDS011;57283;54.816;9.482;2022-10-16T11:46:27;12.18;;;2.10;;
69956;SDS011;57283;54.816;9.482;2022-10-16T11:48:56;6.57;;;1.90;;
69956;SDS011;57283;54.816;9.482;2022-10-16T11:51:25;6.47;;;1.70;;
69956;SDS011;57283;54.816;9.482;2022-10-16T11:53:57;7.75;;;2.00;;
69956;SDS011;57283;54.816;9.482;2022-10-16T11:56:26;8.93;;;1.85;;
69956;SDS011;57283;54.816;9.482;2022-10-16T11:58:56;6.93;;;1.70;;
69956;SDS011;57283;54.816;9.482;2022-10-16T12:01:28;8.25;;;2.00;;
69956;SDS011;57283;54.816;9.482;2022-10-16T12:04:06;9.27;;;2.13;;
69956;SDS011;57283;54.816;9.482;2022-10-16T12:06:40;8.43;;;2.10;;
69956;SDS011;57283;54.816;9.482;2022-10-16T12:09:11;8.15;;;2.38;;
69956;SDS011;57283;54.816;9.482;2022-10-16T12:11:42;7.70;;;1.98;;
69956;SDS011;57283;54.816;9.482;2022-10-16T12:14:20;10.85;;;2.00;;
69956;SDS011;57283;54.816;9.482;2022-10-16T12:16:53;6.73;;;1.60;;
69956;SDS011;57283;54.816;9.482;2022-10-16T12:19:21;6.63;;;1.50;;
69956;SDS011;57283;54.816;9.482;2022-10-16T12:21:48;13.80;;;2.53;;
69956;SDS011;57283;54.816;9.482;2022-10-16T12:24:21;8.13;;;1.65;;
69956;SDS011;57283;54.816;9.482;2022-10-16T12:26:52;11.20;;;1.83;;
69956;SDS011;57283;54.816;9.482;2022-10-16T12:29:23;9.23;;;1.83;;
69956;SDS011;57283;54.816;9.482;2022-10-16T12:31:55;11.25;;;2.70;;
69956;SDS011;57283;54.816;9.482;2022-10-16T12:34:26;11.13;;;2.30;;
69956;SDS011;57283;54.816;9.482;2022-10-16T12:36:55;9.77;;;2.40;;
69956;SDS011;57283;54.816;9.482;2022-10-16T12:39:23;9.15;;;2.10;;
69956;SDS011;57283;54.816;9.482;2022-10-16T12:42:01;10.20;;;2.07;;
69956;SDS011;57283;54.816;9.482;2022-10-16T12:44:32;10.35;;;2.20;;
69956;SDS011;57283;54.816;9.482;2022-10-16T12:47:02;9.25;;;2.40;;
69956;SDS011;57283;54.816;9.482;2022-10-16T12:49:30;9.73;;;2.10;;
69956;SDS011;57283;54.816;9.482;2022-10-16T12:51:58;10.15;;;2.63;;
69956;SDS011;57283;54.816;9.482;2022-10-16T12:54:27;8.13;;;2.40;;
69956;SDS011;57283;54.816;9.482;2022-10-16T12:57:00;9.30;;;2.72;;
69956;SDS011;57283;54.816;9.482;2022-10-16T12:59:33;8.68;;;2.22;;
69956;SDS011;57283;54.816;9.482;2022-10-16T13:02:15;9.52;;;2.08;;
69956;SDS011;57283;54.816;9.482;2022-10-16T13:04:47;9.77;;;2.03;;
69956;SDS011;57283;54.816;9.482;2022-10-16T13:07:21;9.43;;;2.20;;
69956;SDS011;57283;54.816;9.482;2022-10-16T13:09:58;10.57;;;2.25;;
69956;SDS011;57283;54.816;9.482;2022-10-16T13:12:42;10.13;;;2.25;;
69956;SDS011;57283;54.816;9.482;2022-10-16T13:15:22;11.55;;;2.55;;
69956;SDS011;57283;54.816;9.482;2022-10-16T13:17:55;11.23;;;1.83;;
69956;SDS011;57283;54.816;9.482;2022-10-16T13:20:26;6.67;;;1.60;;
69956;SDS011;57283;54.816;9.482;2022-10-16T13:22:59;11.52;;;1.80;;
69956;SDS011;57283;54.816;9.482;2022-10-16T13:25:33;9.13;;;2.25;;
69956;SDS011;57283;54.816;9.482;2022-10-16T13:28:03;9.85;;;1.58;;
69956;SDS011;57283;54.816;9.482;2022-10-16T13:30:34;10.50;;;2.00;;
69956;SDS011;57283;54.816;9.482;2022-10-16T13:33:06;10.40;;;1.83;;
69956;SDS011;57283;54.816;9.482;2022-10-16T13:35:35;11.43;;;2.30;;
69956;SDS011;57283;54.816;9.482;2022-10-16T13:38:03;14.38;;;2.33;;
69956;SDS011;57283;54.816;9.482;2022-10-16T13:40:31;9.65;;;1.60;;
69956;SDS011;57283;54.816;9.482;2022-10-16T13:43:00;11.00;;;2.10;;
69956;SDS011;57283;54.816;9.482;2022-10-16T13:45:28;13.20;;;2.77;;
69956;SDS011;57283;54.816;9.482;2022-10-16T13:48:02;15.82;;;2.33;;
69956;SDS011;57283;54.816;9.482;2022-10-16T13:50:31;14.63;;;2.90;;
69956;SDS011;57283;54.816;9.482;2022-10-16T13:53:05;12.15;;;2.08;;
69956;SDS011;57283;54.816;9.482;2022-10-16T13:55:33;11.50;;;2.10;;
69956;SDS011;57283;54.816;9.482;2022-10-16T13:58:07;10.80;;;1.83;;
69956;SDS011;57283;54.816;9.482;2022-10-16T14:00:35;11.45;;;2.10;;
69956;SDS011;57283;54.816;9.482;2022-10-16T14:03:05;9.27;;;2.00;;
69956;SDS011;57283;54.816;9.482;2022-10-16T14:05:35;11.38;;;2.00;;
69956;SDS011;57283;54.816;9.482;2022-10-16T14:08:03;12.10;;;1.65;;
69956;SDS011;57283;54.816;9.482;2022-10-16T14:10:31;11.27;;;2.27;;
69956;SDS011;57283;54.816;9.482;2022-10-16T14:13:00;12.18;;;2.15;;
69956;SDS011;57283;54.816;9.482;2022-10-16T14:15:29;10.38;;;2.20;;
69956;SDS011;57283;54.816;9.482;2022-10-16T14:17:57;11.43;;;1.85;;
69956;SDS011;57283;54.816;9.482;2022-10-16T14:20:26;9.48;;;1.75;;
69956;SDS011;57283;54.816;9.482;2022-10-16T14:23:02;9.20;;;1.70;;
69956;SDS011;57283;54.816;9.482;2022-10-16T14:25:31;11.40;;;1.70;;
69956;SDS011;57283;54.816;9.482;2022-10-16T14:28:00;13.55;;;2.25;;
69956;SDS011;57283;54.816;9.482;2022-10-16T14:30:28;8.95;;;1.90;;
69956;SDS011;57283;54.816;9.482;2022-10-16T14:32:57;9.50;;;1.98;;
69956;SDS011;57283;54.816;9.482;2022-10-16T14:35:29;15.63;;;2.03;;
69956;SDS011;57283;54.816;9.482;2022-10-16T14:38:06;12.65;;;2.42;;
69956;SDS011;57283;54.816;9.482;2022-10-16T14:40:46;9.93;;;1.88;;
69956;SDS011;57283;54.816;9.482;2022-10-16T14:43:16;10.18;;;1.92;;
69956;SDS011;57283;54.816;9.482;2022-10-16T14:45:49;10.60;;;1.88;;
69956;SDS011;57283;54.816;9.482;2022-10-16T14:48:18;9.20;;;1.70;;
69956;SDS011;57283;54.816;9.482;2022-10-16T14:50:46;10.13;;;1.73;;
69956;SDS011;57283;54.816;9.482;2022-10-16T14:53:15;13.50;;;1.75;;
69956;SDS011;57283;54.816;9.482;2022-10-16T14:55:42;10.02;;;1.83;;
69956;SDS011;57283;54.816;9.482;2022-10-16T14:58:11;10.18;;;1.60;;
69956;SDS011;57283;54.816;9.482;2022-10-16T15:00:41;13.40;;;2.60;;
69956;SDS011;57283;54.816;9.482;2022-10-16T15:03:09;9.10;;;1.80;;
69956;SDS011;57283;54.816;9.482;2022-10-16T15:05:37;7.88;;;1.33;;
69956;SDS011;57283;54.816;9.482;2022-10-16T15:08:04;13.38;;;1.60;;